sensor_id;sensor_type;location;lat;lon;timestamp;temperature;humidity
7002;DHT22;3541;53.230;10.518;2023-09-19T00:00:06;17.90;99.90
7002;DHT22;3541;53.230;10.518;2023-09-19T00:02:38;17.90;99.90
7002;DHT22;3541;53.230;10.518;2023-09-19T00:05:05;17.90;99.90
7002;DHT22;3541;53.230;10.518;2023-09-19T00:07:33;17.90;99.90
7002;DHT22;3541;53.230;10.518;2023-09-19T00:10:02;17.90;99.90
7002;DHT22;3541;53.230;10.518;2023-09-19T00:12:29;17.80;99.90
7002;DHT22;3541;53.230;10.518;2023-09-19T00:14:56;17.80;99.90
7002;DHT22;3541;53.230;10.518;2023-09-19T00:17:24;17.70;99.90
7002;DHT22;3541;53.230;10.518;2023-09-19T00:19:51;17.80;99.90
7002;DHT22;3541;53.230;10.518;2023-09-19T00:22:18;17.80;99.90
7002;DHT22;3541;53.230;10.518;2023-09-19T00:24:45;17.80;99.90
7002;DHT22;3541;53.230;10.518;2023-09-19T00:27:12;17.80;99.90
7002;DHT22;3541;53.230;10.518;2023-09-19T00:29:38;17.80;99.90
7002;DHT22;3541;53.230;10.518;2023-09-19T00:32:07;17.80;99.90
7002;DHT22;3541;53.230;10.518;2023-09-19T00:34:35;17.80;99.90
7002;DHT22;3541;53.230;10.518;2023-09-19T00:37:02;17.60;99.90
7002;DHT22;3541;53.230;10.518;2023-09-19T00:39:29;17.50;99.90
7002;DHT22;3541;53.230;10.518;2023-09-19T00:41:56;17.60;99.90
7002;DHT22;3541;53.230;10.518;2023-09-19T00:44:23;17.50;99.90
7002;DHT22;3541;53.230;10.518;2023-09-19T00:46:50;17.50;99.90
7002;DHT22;3541;53.230;10.518;2023-09-19T00:49:16;17.40;99.90
7002;DHT22;3541;53.230;10.518;2023-09-19T00:51:47;17.40;99.90
7002;DHT22;3541;53.230;10.518;2023-09-19T00:54:14;17.50;99.90
7002;DHT22;3541;53.230;10.518;2023-09-19T00:56:44;17.30;99.90
7002;DHT22;3541;53.230;10.518;2023-09-19T00:59:11;17.30;99.90
7002;DHT22;3541;53.230;10.518;2023-09-19T01:01:38;17.40;99.90
7002;DHT22;3541;53.230;10.518;2023-09-19T01:04:06;17.40;99.90
7002;DHT22;3541;53.230;10.518;2023-09-19T01:06:32;17.40;99.90
7002;DHT22;3541;53.230;10.518;2023-09-19T01:09:01;17.40;99.90
7002;DHT22;3541;53.230;10.518;2023-09-19T01:11:33;17.50;99.90
7002;DHT22;3541;53.230;10.518;2023-09-19T01:14:12;17.40;99.90
7002;DHT22;3541;53.230;10.518;2023-09-19T01:16:47;17.40;99.90
7002;DHT22;3541;53.230;10.518;2023-09-19T01:19:45;17.50;99.90
7002;DHT22;3541;53.230;10.518;2023-09-19T01:22:23;17.50;99.90
7002;DHT22;3541;53.230;10.518;2023-09-19T01:25:19;17.50;99.90
7002;DHT22;3541;53.230;10.518;2023-09-19T01:28:20;17.50;99.90
7002;DHT22;3541;53.230;10.518;2023-09-19T01:30:56;17.50;99.90
7002;DHT22;3541;53.230;10.518;2023-09-19T01:33:24;17.40;99.90
7002;DHT22;3541;53.230;10.518;2023-09-19T01:35:51;17.50;99.90
7002;DHT22;3541;53.230;10.518;2023-09-19T01:38:18;17.40;99.90
7002;DHT22;3541;53.230;10.518;2023-09-19T01:40:51;17.30;99.90
7002;DHT22;3541;53.230;10.518;2023-09-19T01:43:29;17.30;99.90
7002;DHT22;3541;53.230;10.518;2023-09-19T01:46:04;17.20;99.90
7002;DHT22;3541;53.230;10.518;2023-09-19T01:48:37;17.30;99.90
7002;DHT22;3541;53.230;10.518;2023-09-19T01:51:06;17.30;99.90
7002;DHT22;3541;53.230;10.518;2023-09-19T01:53:38;17.30;99.90
7002;DHT22;3541;53.230;10.518;2023-09-19T01:56:08;17.30;99.90
7002;DHT22;3541;53.230;10.518;2023-09-19T01:58:42;17.30;99.90
7002;DHT22;3541;53.230;10.518;2023-09-19T02:01:17;17.30;99.90
7002;DHT22;3541;53.230;10.518;2023-09-19T02:03:46;17.30;99.90
7002;DHT22;3541;53.230;10.518;2023-09-19T02:06:14;17.30;99.90
7002;DHT22;3541;53.230;10.518;2023-09-19T02:08:41;17.30;99.90
7002;DHT22;3541;53.230;10.518;2023-09-19T02:11:08;17.30;99.90
7002;DHT22;3541;53.230;10.518;2023-09-19T02:13:34;17.30;99.90
7002;DHT22;3541;53.230;10.518;2023-09-19T02:16:01;17.30;99.90
7002;DHT22;3541;53.230;10.518;2023-09-19T02:18:31;17.30;99.90
7002;DHT22;3541;53.230;10.518;2023-09-19T02:21:00;17.30;99.90
7002;DHT22;3541;53.230;10.518;2023-09-19T02:23:27;17.20;99.90
7002;DHT22;3541;53.230;10.518;2023-09-19T02:25:55;17.20;99.90
7002;DHT22;3541;53.230;10.518;2023-09-19T02:28:23;17.10;99.90
7002;DHT22;3541;53.230;10.518;2023-09-19T02:30:50;17.10;99.90
7002;DHT22;3541;53.230;10.518;2023-09-19T02:33:16;17.10;99.90
7002;DHT22;3541;53.230;10.518;2023-09-19T02:35:44;17.00;99.90
7002;DHT22;3541;53.230;10.518;2023-09-19T02:38:11;17.00;99.90
7002;DHT22;3541;53.230;10.518;2023-09-19T02:40:38;16.90;99.90
7002;DHT22;3541;53.230;10.518;2023-09-19T02:43:04;17.00;99.90
7002;DHT22;3541;53.230;10.518;2023-09-19T02:45:33;17.00;99.90
7002;DHT22;3541;53.230;10.518;2023-09-19T02:47:59;17.00;99.90
7002;DHT22;3541;53.230;10.518;2023-09-19T02:50:28;17.00;99.90
7002;DHT22;3541;53.230;10.518;2023-09-19T02:52:56;17.10;99.90
7002;DHT22;3541;53.230;10.518;2023-09-19T02:55:22;17.00;99.90
7002;DHT22;3541;53.230;10.518;2023-09-19T02:57:50;17.00;99.90
7002;DHT22;3541;53.230;10.518;2023-09-19T03:00:18;17.00;99.90
7002;DHT22;3541;53.230;10.518;2023-09-19T03:02:47;17.10;99.90
7002;DHT22;3541;53.230;10.518;2023-09-19T03:05:13;17.10;99.90
7002;DHT22;3541;53.230;10.518;2023-09-19T03:07:40;17.10;99.90
7002;DHT22;3541;53.230;10.518;2023-09-19T03:10:10;17.00;99.90
7002;DHT22;3541;53.230;10.518;2023-09-19T03:12:36;17.00;99.90
7002;DHT22;3541;53.230;10.518;2023-09-19T03:15:05;17.00;99.90
7002;DHT22;3541;53.230;10.518;2023-09-19T03:17:33;17.00;99.90
7002;DHT22;3541;53.230;10.518;2023-09-19T03:20:00;17.00;99.90
7002;DHT22;3541;53.230;10.518;2023-09-19T03:22:27;17.00;99.90
7002;DHT22;3541;53.230;10.518;2023-09-19T03:24:54;17.00;99.90
7002;DHT22;3541;53.230;10.518;2023-09-19T03:27:22;17.00;99.90
7002;DHT22;3541;53.230;10.518;2023-09-19T03:29:48;16.90;99.90
7002;DHT22;3541;53.230;10.518;2023-09-19T03:32:15;16.90;99.90
7002;DHT22;3541;53.230;10.518;2023-09-19T03:34:41;16.90;99.90
7002;DHT22;3541;53.230;10.518;2023-09-19T03:37:08;16.80;99.90
7002;DHT22;3541;53.230;10.518;2023-09-19T03:39:35;16.80;99.90
7002;DHT22;3541;53.230;10.518;2023-09-19T03:42:02;16.80;99.90
7002;DHT22;3541;53.230;10.518;2023-09-19T03:44:30;16.90;99.90
7002;DHT22;3541;53.230;10.518;2023-09-19T03:46:57;16.90;99.90
7002;DHT22;3541;53.230;10.518;2023-09-19T03:49:23;16.80;99.90
7002;DHT22;3541;53.230;10.518;2023-09-19T03:51:50;16.80;99.90
7002;DHT22;3541;53.230;10.518;2023-09-19T03:54:17;16.80;99.90
7002;DHT22;3541;53.230;10.518;2023-09-19T03:56:44;16.80;99.90
7002;DHT22;3541;53.230;10.518;2023-09-19T03:59:11;16.80;99.90
7002;DHT22;3541;53.230;10.518;2023-09-19T04:01:40;16.80;99.90
7002;DHT22;3541;53.230;10.518;2023-09-19T04:04:07;16.80;99.90
7002;DHT22;3541;53.230;10.518;2023-09-19T04:06:34;16.90;99.90
7002;DHT22;3541;53.230;10.518;2023-09-19T04:09:01;16.90;99.90
7002;DHT22;3541;53.230;10.518;2023-09-19T04:11:28;16.80;99.90
7002;DHT22;3541;53.230;10.518;2023-09-19T04:13:55;16.80;99.90
7002;DHT22;3541;53.230;10.518;2023-09-19T04:16:22;16.80;99.90
7002;DHT22;3541;53.230;10.518;2023-09-19T04:18:49;16.80;99.90
7002;DHT22;3541;53.230;10.518;2023-09-19T04:21:16;16.80;99.90
7002;DHT22;3541;53.230;10.518;2023-09-19T04:23:44;16.80;99.90
7002;DHT22;3541;53.230;10.518;2023-09-19T04:26:11;16.70;99.90
7002;DHT22;3541;53.230;10.518;2023-09-19T04:28:38;16.70;99.90
7002;DHT22;3541;53.230;10.518;2023-09-19T04:31:06;16.60;99.90
7002;DHT22;3541;53.230;10.518;2023-09-19T04:33:33;16.60;99.90
7002;DHT22;3541;53.230;10.518;2023-09-19T04:36:01;16.60;99.90
7002;DHT22;3541;53.230;10.518;2023-09-19T04:38:32;16.60;99.90
7002;DHT22;3541;53.230;10.518;2023-09-19T04:40:59;16.50;99.90
7002;DHT22;3541;53.230;10.518;2023-09-19T04:43:26;16.60;99.90
7002;DHT22;3541;53.230;10.518;2023-09-19T04:45:52;16.40;99.90
7002;DHT22;3541;53.230;10.518;2023-09-19T04:48:21;16.50;99.90
7002;DHT22;3541;53.230;10.518;2023-09-19T04:50:49;16.40;99.90
7002;DHT22;3541;53.230;10.518;2023-09-19T04:53:17;16.40;99.90
7002;DHT22;3541;53.230;10.518;2023-09-19T04:55:50;16.40;99.90
7002;DHT22;3541;53.230;10.518;2023-09-19T04:58:17;16.40;99.90
7002;DHT22;3541;53.230;10.518;2023-09-19T05:00:44;16.40;99.90
7002;DHT22;3541;53.230;10.518;2023-09-19T05:03:11;16.30;99.90
7002;DHT22;3541;53.230;10.518;2023-09-19T05:05:37;16.20;99.90
7002;DHT22;3541;53.230;10.518;2023-09-19T05:08:06;16.20;99.90
7002;DHT22;3541;53.230;10.518;2023-09-19T05:10:36;16.30;99.90
7002;DHT22;3541;53.230;10.518;2023-09-19T05:13:03;16.20;99.90
7002;DHT22;3541;53.230;10.518;2023-09-19T05:15:30;16.20;99.90
7002;DHT22;3541;53.230;10.518;2023-09-19T05:17:57;16.20;99.90
7002;DHT22;3541;53.230;10.518;2023-09-19T05:20:23;16.30;99.90
7002;DHT22;3541;53.230;10.518;2023-09-19T05:22:58;16.30;99.90
7002;DHT22;3541;53.230;10.518;2023-09-19T05:25:26;16.20;99.90
7002;DHT22;3541;53.230;10.518;2023-09-19T05:27:56;16.20;99.90
7002;DHT22;3541;53.230;10.518;2023-09-19T05:30:24;16.20;99.90
7002;DHT22;3541;53.230;10.518;2023-09-19T05:32:52;16.20;99.90
7002;DHT22;3541;53.230;10.518;2023-09-19T05:35:19;16.20;99.90
7002;DHT22;3541;53.230;10.518;2023-09-19T05:37:47;16.20;99.90
7002;DHT22;3541;53.230;10.518;2023-09-19T05:40:16;16.20;99.90
7002;DHT22;3541;53.230;10.518;2023-09-19T05:42:43;16.10;99.90
7002;DHT22;3541;53.230;10.518;2023-09-19T05:45:11;16.10;99.90
7002;DHT22;3541;53.230;10.518;2023-09-19T05:47:38;16.00;99.90
7002;DHT22;3541;53.230;10.518;2023-09-19T05:50:06;16.10;99.90
7002;DHT22;3541;53.230;10.518;2023-09-19T05:52:34;16.10;99.90
7002;DHT22;3541;53.230;10.518;2023-09-19T05:55:02;15.90;99.90
7002;DHT22;3541;53.230;10.518;2023-09-19T05:57:30;16.00;99.90
7002;DHT22;3541;53.230;10.518;2023-09-19T05:59:57;16.00;99.90
7002;DHT22;3541;53.230;10.518;2023-09-19T06:02:25;16.10;99.90
7002;DHT22;3541;53.230;10.518;2023-09-19T06:04:54;16.00;99.90
7002;DHT22;3541;53.230;10.518;2023-09-19T06:07:20;16.00;99.90
7002;DHT22;3541;53.230;10.518;2023-09-19T06:09:47;16.00;99.90
7002;DHT22;3541;53.230;10.518;2023-09-19T06:12:14;16.00;99.90
7002;DHT22;3541;53.230;10.518;2023-09-19T06:14:42;15.90;99.90
7002;DHT22;3541;53.230;10.518;2023-09-19T06:17:09;15.90;99.90
7002;DHT22;3541;53.230;10.518;2023-09-19T06:19:37;16.00;99.90
7002;DHT22;3541;53.230;10.518;2023-09-19T06:22:04;15.90;99.90
7002;DHT22;3541;53.230;10.518;2023-09-19T06:24:30;15.90;99.90
7002;DHT22;3541;53.230;10.518;2023-09-19T06:26:57;16.00;99.90
7002;DHT22;3541;53.230;10.518;2023-09-19T06:29:27;16.00;99.90
7002;DHT22;3541;53.230;10.518;2023-09-19T06:31:53;16.10;99.90
7002;DHT22;3541;53.230;10.518;2023-09-19T06:34:20;16.10;99.90
7002;DHT22;3541;53.230;10.518;2023-09-19T06:36:48;16.00;99.90
7002;DHT22;3541;53.230;10.518;2023-09-19T06:39:14;16.00;99.90
7002;DHT22;3541;53.230;10.518;2023-09-19T06:41:41;16.10;99.90
7002;DHT22;3541;53.230;10.518;2023-09-19T06:44:08;16.20;99.90
7002;DHT22;3541;53.230;10.518;2023-09-19T06:46:35;16.20;99.90
7002;DHT22;3541;53.230;10.518;2023-09-19T06:49:04;16.30;99.90
7002;DHT22;3541;53.230;10.518;2023-09-19T06:51:31;16.30;99.90
7002;DHT22;3541;53.230;10.518;2023-09-19T06:54:01;16.30;99.90
7002;DHT22;3541;53.230;10.518;2023-09-19T06:56:27;16.30;99.90
7002;DHT22;3541;53.230;10.518;2023-09-19T06:58:54;16.40;99.90
7002;DHT22;3541;53.230;10.518;2023-09-19T07:01:21;16.40;99.90
7002;DHT22;3541;53.230;10.518;2023-09-19T07:03:47;16.40;99.90
7002;DHT22;3541;53.230;10.518;2023-09-19T07:06:14;16.50;99.90
7002;DHT22;3541;53.230;10.518;2023-09-19T07:08:40;16.50;99.90
7002;DHT22;3541;53.230;10.518;2023-09-19T07:11:08;16.60;99.90
7002;DHT22;3541;53.230;10.518;2023-09-19T07:13:36;16.50;99.90
7002;DHT22;3541;53.230;10.518;2023-09-19T07:16:04;16.70;99.90
7002;DHT22;3541;53.230;10.518;2023-09-19T07:18:30;16.60;99.90
7002;DHT22;3541;53.230;10.518;2023-09-19T07:20:58;16.50;99.90
7002;DHT22;3541;53.230;10.518;2023-09-19T07:23:31;16.60;99.90
7002;DHT22;3541;53.230;10.518;2023-09-19T07:26:00;16.70;99.90
7002;DHT22;3541;53.230;10.518;2023-09-19T07:28:32;16.70;99.90
7002;DHT22;3541;53.230;10.518;2023-09-19T07:31:01;16.50;99.90
7002;DHT22;3541;53.230;10.518;2023-09-19T07:33:28;16.60;99.90
7002;DHT22;3541;53.230;10.518;2023-09-19T07:35:55;16.60;99.90
7002;DHT22;3541;53.230;10.518;2023-09-19T07:38:21;16.60;99.90
7002;DHT22;3541;53.230;10.518;2023-09-19T07:40:48;16.50;99.90
7002;DHT22;3541;53.230;10.518;2023-09-19T07:43:15;16.50;99.90
7002;DHT22;3541;53.230;10.518;2023-09-19T07:45:44;16.50;99.90
7002;DHT22;3541;53.230;10.518;2023-09-19T07:48:11;16.50;99.90
7002;DHT22;3541;53.230;10.518;2023-09-19T07:50:40;16.60;99.90
7002;DHT22;3541;53.230;10.518;2023-09-19T07:53:08;16.70;99.90
7002;DHT22;3541;53.230;10.518;2023-09-19T07:55:35;16.80;99.90
7002;DHT22;3541;53.230;10.518;2023-09-19T07:58:02;16.80;99.90
7002;DHT22;3541;53.230;10.518;2023-09-19T08:00:30;16.90;99.90
7002;DHT22;3541;53.230;10.518;2023-09-19T08:02:59;17.00;99.90
7002;DHT22;3541;53.230;10.518;2023-09-19T08:05:26;17.10;99.90
7002;DHT22;3541;53.230;10.518;2023-09-19T08:07:53;17.10;99.90
7002;DHT22;3541;53.230;10.518;2023-09-19T08:10:21;17.10;99.90
7002;DHT22;3541;53.230;10.518;2023-09-19T08:12:50;17.10;99.90
7002;DHT22;3541;53.230;10.518;2023-09-19T08:15:21;17.00;99.90
7002;DHT22;3541;53.230;10.518;2023-09-19T08:17:48;17.00;99.90
7002;DHT22;3541;53.230;10.518;2023-09-19T08:20:16;17.00;99.90
7002;DHT22;3541;53.230;10.518;2023-09-19T08:22:47;17.10;99.90
7002;DHT22;3541;53.230;10.518;2023-09-19T08:25:14;17.00;99.90
7002;DHT22;3541;53.230;10.518;2023-09-19T08:27:43;17.00;99.90
7002;DHT22;3541;53.230;10.518;2023-09-19T08:30:13;17.10;99.90
7002;DHT22;3541;53.230;10.518;2023-09-19T08:32:40;17.10;99.90
7002;DHT22;3541;53.230;10.518;2023-09-19T08:35:08;17.20;99.90
7002;DHT22;3541;53.230;10.518;2023-09-19T08:37:36;17.10;99.90
7002;DHT22;3541;53.230;10.518;2023-09-19T08:40:03;17.10;99.90
7002;DHT22;3541;53.230;10.518;2023-09-19T08:42:31;17.20;99.90
7002;DHT22;3541;53.230;10.518;2023-09-19T08:44:58;17.30;99.90
7002;DHT22;3541;53.230;10.518;2023-09-19T08:47:32;17.30;99.90
7002;DHT22;3541;53.230;10.518;2023-09-19T08:50:06;17.30;99.90
7002;DHT22;3541;53.230;10.518;2023-09-19T08:52:41;17.20;99.90
7002;DHT22;3541;53.230;10.518;2023-09-19T08:55:12;17.30;99.90
7002;DHT22;3541;53.230;10.518;2023-09-19T08:57:41;17.30;99.90
7002;DHT22;3541;53.230;10.518;2023-09-19T09:00:10;17.30;99.90
7002;DHT22;3541;53.230;10.518;2023-09-19T09:02:37;17.30;99.90
7002;DHT22;3541;53.230;10.518;2023-09-19T09:05:07;17.40;99.90
7002;DHT22;3541;53.230;10.518;2023-09-19T09:07:35;17.40;99.90
7002;DHT22;3541;53.230;10.518;2023-09-19T09:10:04;17.50;99.90
7002;DHT22;3541;53.230;10.518;2023-09-19T09:12:31;17.60;99.90
7002;DHT22;3541;53.230;10.518;2023-09-19T09:14:58;17.60;99.90
7002;DHT22;3541;53.230;10.518;2023-09-19T09:17:24;17.80;99.90
7002;DHT22;3541;53.230;10.518;2023-09-19T09:19:52;17.90;99.90
7002;DHT22;3541;53.230;10.518;2023-09-19T09:22:19;17.80;99.90
7002;DHT22;3541;53.230;10.518;2023-09-19T09:24:53;17.70;99.90
7002;DHT22;3541;53.230;10.518;2023-09-19T09:27:21;17.70;99.90
7002;DHT22;3541;53.230;10.518;2023-09-19T09:29:50;17.70;99.90
7002;DHT22;3541;53.230;10.518;2023-09-19T09:32:19;17.70;99.90
7002;DHT22;3541;53.230;10.518;2023-09-19T09:34:46;17.70;99.90
7002;DHT22;3541;53.230;10.518;2023-09-19T09:37:14;17.70;99.90
7002;DHT22;3541;53.230;10.518;2023-09-19T09:39:49;17.80;99.90
7002;DHT22;3541;53.230;10.518;2023-09-19T09:42:31;17.80;99.90
7002;DHT22;3541;53.230;10.518;2023-09-19T09:45:14;17.90;99.90
7002;DHT22;3541;53.230;10.518;2023-09-19T09:47:45;18.10;99.90
7002;DHT22;3541;53.230;10.518;2023-09-19T09:50:28;18.30;99.90
7002;DHT22;3541;53.230;10.518;2023-09-19T09:53:03;18.50;99.90
7002;DHT22;3541;53.230;10.518;2023-09-19T09:55:57;18.50;99.90
7002;DHT22;3541;53.230;10.518;2023-09-19T09:58:25;18.40;99.90
7002;DHT22;3541;53.230;10.518;2023-09-19T10:00:54;18.30;99.90
7002;DHT22;3541;53.230;10.518;2023-09-19T10:03:31;18.40;99.90
7002;DHT22;3541;53.230;10.518;2023-09-19T10:06:00;18.40;99.90
7002;DHT22;3541;53.230;10.518;2023-09-19T10:08:36;18.50;99.90
7002;DHT22;3541;53.230;10.518;2023-09-19T10:11:15;18.40;99.90
7002;DHT22;3541;53.230;10.518;2023-09-19T10:13:44;18.40;99.90
7002;DHT22;3541;53.230;10.518;2023-09-19T10:16:13;18.40;99.90
7002;DHT22;3541;53.230;10.518;2023-09-19T10:18:43;18.50;99.90
7002;DHT22;3541;53.230;10.518;2023-09-19T10:21:12;18.50;99.90
7002;DHT22;3541;53.230;10.518;2023-09-19T10:23:40;18.50;99.90
7002;DHT22;3541;53.230;10.518;2023-09-19T10:26:09;18.50;99.90
7002;DHT22;3541;53.230;10.518;2023-09-19T10:28:37;18.60;99.90
7002;DHT22;3541;53.230;10.518;2023-09-19T10:31:06;18.70;99.90
7002;DHT22;3541;53.230;10.518;2023-09-19T10:33:36;18.70;99.90
7002;DHT22;3541;53.230;10.518;2023-09-19T10:36:05;18.70;99.90
7002;DHT22;3541;53.230;10.518;2023-09-19T10:38:33;18.50;99.90
7002;DHT22;3541;53.230;10.518;2023-09-19T10:41:01;18.50;99.90
7002;DHT22;3541;53.230;10.518;2023-09-19T10:43:30;18.50;99.90
7002;DHT22;3541;53.230;10.518;2023-09-19T10:46:02;18.50;99.90
7002;DHT22;3541;53.230;10.518;2023-09-19T10:48:30;18.60;99.90
7002;DHT22;3541;53.230;10.518;2023-09-19T10:51:02;18.50;99.90
7002;DHT22;3541;53.230;10.518;2023-09-19T10:53:43;18.40;99.90
7002;DHT22;3541;53.230;10.518;2023-09-19T10:56:18;18.30;99.90
7002;DHT22;3541;53.230;10.518;2023-09-19T10:58:45;18.10;99.90
7002;DHT22;3541;53.230;10.518;2023-09-19T11:01:12;18.30;99.90
7002;DHT22;3541;53.230;10.518;2023-09-19T11:03:41;18.30;99.90
7002;DHT22;3541;53.230;10.518;2023-09-19T11:06:11;18.40;99.90
7002;DHT22;3541;53.230;10.518;2023-09-19T11:08:59;18.50;99.90
7002;DHT22;3541;53.230;10.518;2023-09-19T11:11:46;18.70;99.90
7002;DHT22;3541;53.230;10.518;2023-09-19T11:14:37;18.80;99.90
7002;DHT22;3541;53.230;10.518;2023-09-19T11:20:24;18.70;99.90
7002;DHT22;3541;53.230;10.518;2023-09-19T11:23:20;18.70;99.90
7002;DHT22;3541;53.230;10.518;2023-09-19T11:25:50;18.60;99.90
7002;DHT22;3541;53.230;10.518;2023-09-19T11:28:28;18.50;99.90
7002;DHT22;3541;53.230;10.518;2023-09-19T11:30:56;18.50;99.90
7002;DHT22;3541;53.230;10.518;2023-09-19T11:33:25;18.50;99.90
7002;DHT22;3541;53.230;10.518;2023-09-19T11:36:02;18.50;99.90
7002;DHT22;3541;53.230;10.518;2023-09-19T11:38:59;18.60;99.90
7002;DHT22;3541;53.230;10.518;2023-09-19T11:41:37;18.60;99.90
7002;DHT22;3541;53.230;10.518;2023-09-19T11:44:33;18.40;99.90
7002;DHT22;3541;53.230;10.518;2023-09-19T11:47:05;18.40;99.90
7002;DHT22;3541;53.230;10.518;2023-09-19T11:49:32;18.30;99.90
7002;DHT22;3541;53.230;10.518;2023-09-19T11:52:01;18.40;99.90
7002;DHT22;3541;53.230;10.518;2023-09-19T11:54:30;18.50;99.90
7002;DHT22;3541;53.230;10.518;2023-09-19T11:56:58;18.60;99.90
7002;DHT22;3541;53.230;10.518;2023-09-19T11:59:26;18.60;99.90
7002;DHT22;3541;53.230;10.518;2023-09-19T12:01:54;18.70;99.90
7002;DHT22;3541;53.230;10.518;2023-09-19T12:04:33;18.80;99.90
7002;DHT22;3541;53.230;10.518;2023-09-19T12:07:05;19.00;99.90
7002;DHT22;3541;53.230;10.518;2023-09-19T12:09:38;19.00;99.90
7002;DHT22;3541;53.230;10.518;2023-09-19T12:12:05;19.10;99.90
7002;DHT22;3541;53.230;10.518;2023-09-19T12:14:32;19.20;99.90
7002;DHT22;3541;53.230;10.518;2023-09-19T12:16:59;19.30;99.90
7002;DHT22;3541;53.230;10.518;2023-09-19T12:19:27;19.30;99.90
7002;DHT22;3541;53.230;10.518;2023-09-19T12:21:55;19.30;99.90
7002;DHT22;3541;53.230;10.518;2023-09-19T12:24:25;19.30;99.90
7002;DHT22;3541;53.230;10.518;2023-09-19T12:26:59;19.30;99.90
7002;DHT22;3541;53.230;10.518;2023-09-19T12:29:27;19.20;99.90
7002;DHT22;3541;53.230;10.518;2023-09-19T12:31:56;19.20;99.90
7002;DHT22;3541;53.230;10.518;2023-09-19T12:34:24;19.20;99.90
7002;DHT22;3541;53.230;10.518;2023-09-19T12:37:06;19.30;99.90
7002;DHT22;3541;53.230;10.518;2023-09-19T12:39:39;19.30;99.90
7002;DHT22;3541;53.230;10.518;2023-09-19T12:42:08;19.30;99.90
7002;DHT22;3541;53.230;10.518;2023-09-19T12:44:36;19.10;99.90
7002;DHT22;3541;53.230;10.518;2023-09-19T12:47:14;19.20;99.90
7002;DHT22;3541;53.230;10.518;2023-09-19T12:50:08;19.20;99.90
7002;DHT22;3541;53.230;10.518;2023-09-19T12:52:39;19.30;99.90
7002;DHT22;3541;53.230;10.518;2023-09-19T12:55:07;19.40;99.90
7002;DHT22;3541;53.230;10.518;2023-09-19T12:57:36;19.50;99.90
7002;DHT22;3541;53.230;10.518;2023-09-19T13:00:05;19.50;99.90
7002;DHT22;3541;53.230;10.518;2023-09-19T13:02:33;19.50;99.90
7002;DHT22;3541;53.230;10.518;2023-09-19T13:04:59;19.70;99.90
7002;DHT22;3541;53.230;10.518;2023-09-19T13:07:43;19.70;99.90
7002;DHT22;3541;53.230;10.518;2023-09-19T13:10:15;19.70;99.90
7002;DHT22;3541;53.230;10.518;2023-09-19T13:12:45;19.50;99.90
7002;DHT22;3541;53.230;10.518;2023-09-19T13:15:15;19.60;99.90
7002;DHT22;3541;53.230;10.518;2023-09-19T13:17:46;19.50;99.90
7002;DHT22;3541;53.230;10.518;2023-09-19T13:20:23;19.50;99.90
7002;DHT22;3541;53.230;10.518;2023-09-19T13:22:53;19.60;99.90
7002;DHT22;3541;53.230;10.518;2023-09-19T13:25:26;19.80;99.90
7002;DHT22;3541;53.230;10.518;2023-09-19T13:27:56;19.80;99.90
7002;DHT22;3541;53.230;10.518;2023-09-19T13:30:25;19.50;99.90
7002;DHT22;3541;53.230;10.518;2023-09-19T13:33:03;19.30;99.90
7002;DHT22;3541;53.230;10.518;2023-09-19T13:35:30;19.50;99.90
7002;DHT22;3541;53.230;10.518;2023-09-19T13:37:58;19.60;99.90
7002;DHT22;3541;53.230;10.518;2023-09-19T13:40:27;19.60;99.90
7002;DHT22;3541;53.230;10.518;2023-09-19T13:43:00;19.60;99.90
7002;DHT22;3541;53.230;10.518;2023-09-19T13:45:26;19.70;99.90
7002;DHT22;3541;53.230;10.518;2023-09-19T13:47:56;19.80;99.90
7002;DHT22;3541;53.230;10.518;2023-09-19T13:50:23;20.00;99.90
7002;DHT22;3541;53.230;10.518;2023-09-19T13:52:50;20.20;99.90
7002;DHT22;3541;53.230;10.518;2023-09-19T13:55:18;20.20;99.90
7002;DHT22;3541;53.230;10.518;2023-09-19T13:57:47;20.20;99.90
7002;DHT22;3541;53.230;10.518;2023-09-19T14:00:15;20.40;99.90
7002;DHT22;3541;53.230;10.518;2023-09-19T14:02:43;20.60;99.90
7002;DHT22;3541;53.230;10.518;2023-09-19T14:05:11;20.80;99.90
7002;DHT22;3541;53.230;10.518;2023-09-19T14:07:40;20.70;99.90
7002;DHT22;3541;53.230;10.518;2023-09-19T14:10:08;20.50;99.90
7002;DHT22;3541;53.230;10.518;2023-09-19T14:12:35;20.50;99.90
7002;DHT22;3541;53.230;10.518;2023-09-19T14:15:04;20.40;99.90
7002;DHT22;3541;53.230;10.518;2023-09-19T14:17:31;20.60;99.90
7002;DHT22;3541;53.230;10.518;2023-09-19T14:19:58;20.70;99.90
7002;DHT22;3541;53.230;10.518;2023-09-19T14:22:24;21.10;99.90
7002;DHT22;3541;53.230;10.518;2023-09-19T14:24:51;21.10;99.90
7002;DHT22;3541;53.230;10.518;2023-09-19T14:27:18;21.10;99.90
7002;DHT22;3541;53.230;10.518;2023-09-19T14:29:44;21.20;99.90
7002;DHT22;3541;53.230;10.518;2023-09-19T14:32:12;21.30;99.90
7002;DHT22;3541;53.230;10.518;2023-09-19T14:34:39;21.30;99.90
7002;DHT22;3541;53.230;10.518;2023-09-19T14:37:08;21.10;99.90
7002;DHT22;3541;53.230;10.518;2023-09-19T14:39:35;21.00;99.90
7002;DHT22;3541;53.230;10.518;2023-09-19T14:42:04;21.20;99.90
7002;DHT22;3541;53.230;10.518;2023-09-19T14:44:30;21.00;99.90
7002;DHT22;3541;53.230;10.518;2023-09-19T14:46:57;20.60;99.90
7002;DHT22;3541;53.230;10.518;2023-09-19T14:49:25;20.20;99.90
7002;DHT22;3541;53.230;10.518;2023-09-19T14:51:52;20.10;99.90
7002;DHT22;3541;53.230;10.518;2023-09-19T14:54:18;20.00;99.90
7002;DHT22;3541;53.230;10.518;2023-09-19T14:56:45;19.90;99.90
7002;DHT22;3541;53.230;10.518;2023-09-19T14:59:19;19.80;99.90
7002;DHT22;3541;53.230;10.518;2023-09-19T15:01:45;19.90;99.90
7002;DHT22;3541;53.230;10.518;2023-09-19T15:04:12;19.80;99.90
7002;DHT22;3541;53.230;10.518;2023-09-19T15:06:40;19.90;99.90
7002;DHT22;3541;53.230;10.518;2023-09-19T15:09:06;19.90;99.90
7002;DHT22;3541;53.230;10.518;2023-09-19T15:11:35;19.80;99.90
7002;DHT22;3541;53.230;10.518;2023-09-19T15:14:01;19.70;99.90
7002;DHT22;3541;53.230;10.518;2023-09-19T15:16:28;19.70;99.90
7002;DHT22;3541;53.230;10.518;2023-09-19T15:18:55;19.70;99.90
7002;DHT22;3541;53.230;10.518;2023-09-19T15:21:21;19.70;99.90
7002;DHT22;3541;53.230;10.518;2023-09-19T15:23:50;19.70;99.90
7002;DHT22;3541;53.230;10.518;2023-09-19T15:26:16;19.60;99.90
7002;DHT22;3541;53.230;10.518;2023-09-19T15:28:46;19.70;99.90
7002;DHT22;3541;53.230;10.518;2023-09-19T15:31:13;19.90;99.90
7002;DHT22;3541;53.230;10.518;2023-09-19T15:33:40;19.80;99.90
7002;DHT22;3541;53.230;10.518;2023-09-19T15:36:08;20.00;99.90
7002;DHT22;3541;53.230;10.518;2023-09-19T15:38:57;20.10;99.90
7002;DHT22;3541;53.230;10.518;2023-09-19T15:41:25;20.10;99.90
7002;DHT22;3541;53.230;10.518;2023-09-19T15:43:52;20.40;99.90
7002;DHT22;3541;53.230;10.518;2023-09-19T15:46:19;20.50;99.90
7002;DHT22;3541;53.230;10.518;2023-09-19T15:48:46;20.60;99.90
7002;DHT22;3541;53.230;10.518;2023-09-19T15:51:13;20.50;99.90
7002;DHT22;3541;53.230;10.518;2023-09-19T15:53:43;20.50;99.90
7002;DHT22;3541;53.230;10.518;2023-09-19T15:56:11;20.40;99.90
7002;DHT22;3541;53.230;10.518;2023-09-19T15:58:39;20.20;99.90
7002;DHT22;3541;53.230;10.518;2023-09-19T16:01:05;20.00;99.90